Time;durP1;ratioP1;P1;durP2;ratioP2;P2;SDS_P1;SDS_P2;PMS_P1;PMS_P2;Temp;Humidity;BMP_temperature;BMP_pressure;BME280_temperature;BME280_humidity;BME280_pressure;Samples;Min_cycle;Max_cycle;Signal;HPM_P1;HPM_P2
2022/01/28 00:01:38;;;;;;;0.00;0.00;;;5.80;99.90;;;;;;5077767;28;20665;-80
2022/01/28 00:04:13;;;;;;;0.00;0.00;;;5.80;99.90;;;;;;5078666;28;20183;-80
2022/01/28 00:06:38;;;;;;;3.60;0.83;;;5.80;99.90;;;;;;5074857;28;20176;-79
2022/01/28 00:09:04;;;;;;;0.00;0.00;;;5.80;99.90;;;;;;5050017;28;20210;-79
2022/01/28 00:11:30;;;;;;;0.10;0.10;;;5.80;99.90;;;;;;5077840;28;20212;-79
2022/01/28 00:14:10;;;;;;;0.37;0.37;;;5.80;99.90;;;;;;5077835;28;20255;-79
2022/01/28 00:19:25;;;;;;;0.10;0.10;;;5.70;99.90;;;;;;5077835;28;20180;-81
2022/01/28 00:38:24;;;;;;;0.00;0.00;;;5.40;99.90;;;;;;5086264;28;20263;-79
2022/01/28 00:40:50;;;;;;;0.10;0.10;;;5.40;99.90;;;;;;5081486;28;20172;-79
2022/01/28 00:43:15;;;;;;;0.00;0.00;;;5.40;99.90;;;;;;5077407;28;20207;-79
2022/01/28 00:45:41;;;;;;;1.43;0.73;;;5.40;99.90;;;;;;5059739;28;20206;-78
2022/01/28 00:48:06;;;;;;;0.80;0.80;;;5.40;99.90;;;;;;5076711;28;20184;-78
2022/01/28 00:50:32;;;;;;;0.00;0.00;;;5.50;99.90;;;;;;5076705;28;20207;-78
2022/01/28 00:52:58;;;;;;;1.40;0.63;;;5.50;99.90;;;;;;5076494;28;20562;-79
2022/01/28 00:55:23;;;;;;;0.87;0.87;;;5.40;99.90;;;;;;5076627;28;20184;-78
2022/01/28 00:57:49;;;;;;;0.00;0.00;;;5.40;99.90;;;;;;5076103;28;20242;-78
2022/01/28 01:00:15;;;;;;;0.13;0.13;;;5.40;99.90;;;;;;5074754;28;20648;-78
2022/01/28 01:02:40;;;;;;;0.00;0.00;;;5.40;99.90;;;;;;5075029;28;20204;-78
2022/01/28 01:05:07;;;;;;;0.10;0.10;;;5.40;99.90;;;;;;5074797;28;20172;-78
2022/01/28 01:07:33;;;;;;;0.10;0.10;;;5.30;99.90;;;;;;5074784;28;20188;-78
2022/01/28 01:09:58;;;;;;;0.30;0.30;;;5.30;99.90;;;;;;5074877;28;20200;-78
2022/01/28 01:12:26;;;;;;;0.53;0.53;;;5.20;99.90;;;;;;5056596;28;20634;-78
2022/01/28 01:14:52;;;;;;;0.77;0.77;;;5.10;99.90;;;;;;5075374;28;20192;-78
2022/01/28 01:17:30;;;;;;;0.93;0.30;;;5.20;99.90;;;;;;5075413;28;20173;-78
2022/01/28 01:20:15;;;;;;;0.60;0.37;;;5.10;99.90;;;;;;5074821;28;20606;-78
2022/01/28 01:22:41;;;;;;;0.03;0.03;;;5.10;99.90;;;;;;5075743;28;20192;-79
2022/01/28 01:25:25;;;;;;;0.03;0.03;;;5.00;99.90;;;;;;5077240;28;20177;-79
2022/01/28 01:27:54;;;;;;;0.37;0.37;;;4.90;99.90;;;;;;5058825;28;20208;-79
2022/01/28 01:30:20;;;;;;;0.00;0.00;;;4.90;99.90;;;;;;5057065;28;20200;-79
2022/01/28 01:32:46;;;;;;;2.83;1.13;;;4.90;99.90;;;;;;5075797;28;20189;-79
2022/01/28 01:35:11;;;;;;;1.40;1.03;;;4.90;99.90;;;;;;5059066;28;20192;-79
2022/01/28 01:37:37;;;;;;;0.33;0.33;;;4.80;99.90;;;;;;5059202;28;20253;-78
2022/01/28 01:40:03;;;;;;;0.00;0.00;;;4.80;99.90;;;;;;5077961;28;20181;-78
2022/01/28 01:42:55;;;;;;;3.17;1.73;;;4.70;99.90;;;;;;5047781;28;20266;-78
2022/01/28 01:53:09;;;;;;;0.73;0.67;;;4.60;99.90;;;;;;5056846;28;20686;-78
2022/01/28 01:55:35;;;;;;;0.30;0.30;;;4.60;99.90;;;;;;5064467;28;20243;-78
2022/01/28 01:58:00;;;;;;;0.00;0.00;;;4.60;99.90;;;;;;5065251;28;20183;-79
2022/01/28 02:00:26;;;;;;;5.60;3.40;;;4.50;99.90;;;;;;5056847;28;20194;-78
2022/01/28 02:02:52;;;;;;;1.17;0.40;;;4.60;99.90;;;;;;5037884;28;20216;-80
2022/01/28 02:05:17;;;;;;;0.40;0.40;;;4.50;99.90;;;;;;5057522;28;20207;-79
2022/01/28 02:07:46;;;;;;;0.03;0.03;;;4.50;99.90;;;;;;5037124;28;20684;-78
2022/01/28 02:10:13;;;;;;;0.00;0.00;;;4.60;99.90;;;;;;5053510;28;20315;-79
2022/01/28 02:12:50;;;;;;;0.10;0.10;;;4.50;99.90;;;;;;5053662;28;20200;-79
2022/01/28 02:15:17;;;;;;;0.10;0.10;;;4.50;99.90;;;;;;5054431;28;20668;-79
2022/01/28 02:17:44;;;;;;;0.00;0.00;;;4.50;99.90;;;;;;5055528;28;20209;-78
2022/01/28 02:20:35;;;;;;;0.63;0.23;;;4.50;99.90;;;;;;5056258;28;20214;-78
2022/01/28 02:23:02;;;;;;;0.63;0.63;;;4.40;99.90;;;;;;5055647;28;20259;-78
2022/01/28 02:25:31;;;;;;;0.73;0.73;;;4.30;99.90;;;;;;5067158;28;20206;-78
2022/01/28 02:28:01;;;;;;;0.40;0.40;;;4.30;99.90;;;;;;5056664;28;20263;-78
2022/01/28 02:30:27;;;;;;;0.00;0.00;;;4.30;99.90;;;;;;5055645;28;20226;-78
2022/01/28 02:32:58;;;;;;;0.00;0.00;;;4.30;99.90;;;;;;5071056;28;20244;-78
2022/01/28 02:35:23;;;;;;;9.73;1.13;;;4.30;99.90;;;;;;5058736;28;20181;-76
2022/01/28 02:37:49;;;;;;;0.40;0.40;;;4.30;99.90;;;;;;5056322;28;20268;-80
2022/01/28 02:40:15;;;;;;;7.57;1.50;;;4.20;99.90;;;;;;5069394;28;20184;-79
2022/01/28 02:45:46;;;;;;;0.13;0.13;;;4.30;99.90;;;;;;5012485;28;20276;-79
2022/01/28 02:48:18;;;;;;;0.10;0.10;;;4.20;99.90;;;;;;5012117;28;20830;-80
2022/01/28 02:51:00;;;;;;;0.10;0.10;;;4.30;99.90;;;;;;5044152;28;20232;-80
2022/01/28 02:53:30;;;;;;;0.10;0.10;;;4.20;99.90;;;;;;5055012;28;20212;-79
2022/01/28 02:56:02;;;;;;;0.60;0.60;;;4.30;99.90;;;;;;5073849;28;20233;-79
2022/01/28 02:58:27;;;;;;;5.90;2.47;;;4.20;99.90;;;;;;5073871;28;20191;-78
2022/01/28 03:00:55;;;;;;;0.00;0.00;;;4.20;99.90;;;;;;5073113;28;20180;-78
2022/01/28 03:03:23;;;;;;;4.93;1.47;;;4.30;99.90;;;;;;5056459;28;20641;-79
2022/01/28 03:05:53;;;;;;;0.00;0.00;;;4.20;99.90;;;;;;5053900;28;20212;-78
2022/01/28 03:08:22;;;;;;;0.20;0.20;;;4.20;99.90;;;;;;5069364;28;20218;-77
2022/01/28 03:13:45;;;;;;;0.27;0.27;;;4.10;99.90;;;;;;5071019;28;20314;-78
2022/01/28 03:16:14;;;;;;;0.43;0.43;;;4.30;99.90;;;;;;5070302;28;20173;-77
2022/01/28 03:19:14;;;;;;;0.00;0.00;;;4.30;99.90;;;;;;5072287;28;20267;-78
2022/01/28 03:23:54;;;;;;;0.00;0.00;;;4.30;99.90;;;;;;5056847;28;20173;-78
2022/01/28 03:26:20;;;;;;;0.77;0.57;;;4.30;99.90;;;;;;5068994;28;20177;-80
2022/01/28 03:28:46;;;;;;;0.73;0.63;;;4.40;99.90;;;;;;5055548;28;20476;-79
2022/01/28 03:31:12;;;;;;;0.40;0.40;;;4.40;99.90;;;;;;5061048;28;20212;-78
2022/01/28 03:33:37;;;;;;;1.00;0.67;;;4.30;99.90;;;;;;5075139;28;20187;-79
2022/01/28 03:36:07;;;;;;;0.00;0.00;;;4.20;99.90;;;;;;5073964;28;20578;-79
2022/01/28 03:38:33;;;;;;;0.33;0.33;;;4.20;99.90;;;;;;5056100;28;20285;-77
2022/01/28 03:40:59;;;;;;;1.40;0.63;;;4.30;99.90;;;;;;5074225;28;20257;-79
2022/01/28 03:43:24;;;;;;;0.00;0.00;;;4.40;99.90;;;;;;5078668;22;20259;-76
2022/01/28 03:45:50;;;;;;;1.90;1.70;;;4.40;99.90;;;;;;5046704;28;20199;-75
2022/01/28 03:48:15;;;;;;;0.20;0.20;;;4.40;99.90;;;;;;5046905;28;20274;-75
2022/01/28 03:50:41;;;;;;;8.03;2.30;;;4.50;99.90;;;;;;5048119;28;20271;-76
2022/01/28 03:53:08;;;;;;;0.73;0.73;;;4.60;99.90;;;;;;5046408;28;20212;-75
2022/01/28 03:55:34;;;;;;;3.03;2.03;;;4.60;99.90;;;;;;5053865;28;20177;-75
2022/01/28 03:58:00;;;;;;;0.00;0.00;;;4.50;99.90;;;;;;5053717;28;20184;-76
2022/01/28 04:00:29;;;;;;;0.73;0.73;;;4.50;99.90;;;;;;5035752;28;20181;-76
2022/01/28 04:13:31;;;;;;;0.00;0.00;;;4.50;99.90;;;;;;5053368;28;20242;-75
2022/01/28 04:18:22;;;;;;;0.10;0.10;;;4.50;99.90;;;;;;5053480;28;20177;-77
2022/01/28 04:20:48;;;;;;;0.40;0.40;;;4.40;99.90;;;;;;5053280;28;20181;-75
2022/01/28 04:23:14;;;;;;;0.27;0.20;;;4.50;99.90;;;;;;5053094;28;20970;-75
2022/01/28 04:25:40;;;;;;;0.13;0.13;;;4.40;99.90;;;;;;5039741;28;20178;-75
2022/01/28 04:28:05;;;;;;;0.93;0.93;;;4.30;99.90;;;;;;5053141;28;20187;-74
2022/01/28 04:30:31;;;;;;;1.70;1.40;;;4.30;99.90;;;;;;5052606;28;20212;-74
2022/01/28 04:32:56;;;;;;;0.00;0.00;;;4.40;99.90;;;;;;5034784;28;20679;-75
2022/01/28 04:35:22;;;;;;;0.30;0.30;;;4.30;99.90;;;;;;5034708;28;20632;-74
2022/01/28 04:38:19;;;;;;;0.53;0.53;;;4.30;99.90;;;;;;5052702;28;20269;-74
2022/01/28 04:41:14;;;;;;;4.30;2.50;;;4.20;99.90;;;;;;5053107;28;20205;-75
2022/01/28 04:43:47;;;;;;;0.00;0.00;;;4.20;99.90;;;;;;5051270;28;20227;-74
2022/01/28 04:53:57;;;;;;;0.00;0.00;;;4.20;99.90;;;;;;5052658;28;20201;-75
2022/01/28 04:56:35;;;;;;;0.00;0.00;;;4.20;99.90;;;;;;5040654;28;20173;-75
2022/01/28 05:01:51;;;;;;;0.10;0.10;;;4.30;99.90;;;;;;5052033;28;20181;-74
2022/01/28 05:12:59;;;;;;;0.10;0.10;;;4.20;99.90;;;;;;5052214;28;20200;-76
2022/01/28 05:23:21;;;;;;;1.13;1.13;;;4.20;99.90;;;;;;5052694;28;20212;-77
2022/01/28 05:28:27;;;;;;;0.30;0.30;;;4.20;99.90;;;;;;5052065;28;20592;-76
2022/01/28 05:30:52;;;;;;;4.03;2.77;;;4.10;99.90;;;;;;5033731;28;20228;-76
2022/01/28 05:33:18;;;;;;;1.87;1.77;;;4.20;99.90;;;;;;5052269;28;20223;-76
2022/01/28 05:35:43;;;;;;;0.00;0.00;;;4.20;99.90;;;;;;5037220;28;20200;-76
2022/01/28 05:38:09;;;;;;;0.00;0.00;;;4.20;99.90;;;;;;5041202;28;20644;-76
2022/01/28 05:40:35;;;;;;;1.40;1.40;;;4.20;99.90;;;;;;5050101;28;20243;-75
2022/01/28 05:43:00;;;;;;;0.00;0.00;;;4.10;99.90;;;;;;5041374;28;20355;-75
2022/01/28 05:45:26;;;;;;;1.07;0.50;;;4.20;99.90;;;;;;5045864;28;20770;-75
2022/01/28 05:47:51;;;;;;;0.00;0.00;;;4.10;99.90;;;;;;5053851;28;20687;-78
2022/01/28 05:50:17;;;;;;;0.00;0.00;;;4.10;99.90;;;;;;5054709;28;20216;-78
2022/01/28 05:52:43;;;;;;;0.00;0.00;;;4.10;99.90;;;;;;5053760;28;20197;-78
2022/01/28 05:55:08;;;;;;;0.80;0.80;;;4.10;99.90;;;;;;5037277;28;20318;-77
2022/01/28 05:57:34;;;;;;;0.43;0.43;;;4.10;99.90;;;;;;5037005;28;20215;-77
2022/01/28 06:00:00;;;;;;;1.53;1.53;;;4.10;99.90;;;;;;5054604;28;20215;-78
2022/01/28 06:02:25;;;;;;;0.00;0.00;;;4.20;99.90;;;;;;5036319;28;20203;-78
2022/01/28 06:04:51;;;;;;;0.30;0.30;;;4.20;99.90;;;;;;5053502;28;20244;-78
2022/01/28 06:07:19;;;;;;;0.47;0.47;;;4.10;99.90;;;;;;5054083;28;20188;-78
2022/01/28 06:09:45;;;;;;;0.63;0.63;;;4.00;99.90;;;;;;5031071;28;20180;-75
2022/01/28 06:12:10;;;;;;;0.20;0.20;;;4.10;99.90;;;;;;5040013;28;20287;-74
2022/01/28 06:14:36;;;;;;;0.40;0.40;;;4.20;99.90;;;;;;5050240;28;20176;-74
2022/01/28 06:17:02;;;;;;;0.13;0.13;;;4.20;99.90;;;;;;5033256;28;20185;-75
2022/01/28 06:19:28;;;;;;;10.17;0.70;;;4.10;99.90;;;;;;5051077;28;20227;-76
2022/01/28 06:21:53;;;;;;;1.37;1.17;;;4.00;99.90;;;;;;5050583;28;20220;-75
2022/01/28 06:24:19;;;;;;;0.40;0.40;;;4.10;99.90;;;;;;5048203;28;20189;-75
2022/01/28 06:26:45;;;;;;;0.10;0.10;;;4.10;99.90;;;;;;5040266;28;20199;-76
2022/01/28 06:29:12;;;;;;;8.70;4.30;;;4.10;99.90;;;;;;5050815;28;20184;-74
2022/01/28 06:31:38;;;;;;;2.30;1.30;;;4.00;99.90;;;;;;5032575;28;20208;-75
2022/01/28 06:34:04;;;;;;;1.47;1.20;;;4.10;99.90;;;;;;5033002;28;20203;-76
2022/01/28 06:36:29;;;;;;;1.07;0.83;;;4.10;99.90;;;;;;5050835;28;21002;-76
2022/01/28 06:38:55;;;;;;;0.57;0.57;;;4.00;99.90;;;;;;5050893;28;20254;-75
2022/01/28 06:41:20;;;;;;;0.33;0.33;;;4.00;99.90;;;;;;5050502;28;20208;-75
2022/01/28 06:43:46;;;;;;;1.20;1.20;;;3.90;99.90;;;;;;5050577;28;20215;-75
2022/01/28 06:46:11;;;;;;;0.43;0.43;;;3.90;99.90;;;;;;5051142;28;20271;-76
2022/01/28 06:48:37;;;;;;;0.30;0.30;;;3.90;99.90;;;;;;5032768;28;20193;-75
2022/01/28 06:51:02;;;;;;;2.93;1.50;;;3.90;99.90;;;;;;5050728;28;20201;-76
2022/01/28 06:53:28;;;;;;;1.17;1.10;;;3.90;99.90;;;;;;5032610;28;20230;-75
2022/01/28 06:55:53;;;;;;;2.13;1.97;;;4.00;99.90;;;;;;5050950;28;20705;-76
2022/01/28 06:58:19;;;;;;;7.33;2.03;;;4.00;99.90;;;;;;5034729;28;20211;-75
2022/01/28 07:00:44;;;;;;;0.23;0.23;;;3.90;99.90;;;;;;5054627;28;20189;-75
2022/01/28 07:03:12;;;;;;;0.10;0.10;;;3.90;99.90;;;;;;5054122;28;20262;-75
2022/01/28 07:05:38;;;;;;;0.47;0.47;;;3.90;99.90;;;;;;5054362;28;20447;-75
2022/01/28 07:08:05;;;;;;;14.93;3.60;;;4.00;99.90;;;;;;5054352;28;20199;-76
2022/01/28 07:10:32;;;;;;;0.50;0.50;;;4.00;99.90;;;;;;5054400;28;20201;-76
2022/01/28 07:12:58;;;;;;;1.03;0.87;;;4.00;99.90;;;;;;5054087;28;20205;-76
2022/01/28 07:15:25;;;;;;;2.40;2.30;;;4.00;99.90;;;;;;5054372;28;20666;-76
2022/01/28 07:18:02;;;;;;;1.43;1.43;;;4.00;99.90;;;;;;5054016;28;20322;-75
2022/01/28 07:20:33;;;;;;;1.17;1.13;;;4.00;99.90;;;;;;5054036;28;20181;-76
2022/01/28 07:22:59;;;;;;;0.53;0.53;;;3.90;99.90;;;;;;5053837;28;20665;-76
2022/01/28 07:25:25;;;;;;;2.73;1.70;;;3.90;99.90;;;;;;5025496;28;20178;-76
2022/01/28 07:27:50;;;;;;;0.13;0.13;;;3.90;99.90;;;;;;5053251;28;20654;-75
2022/01/28 07:30:16;;;;;;;0.47;0.47;;;3.90;99.90;;;;;;5054907;28;20204;-76
2022/01/28 07:32:42;;;;;;;0.13;0.13;;;3.90;99.90;;;;;;5054180;28;20197;-75
2022/01/28 07:35:08;;;;;;;0.77;0.77;;;3.90;99.90;;;;;;5055091;28;20251;-74
2022/01/28 07:37:34;;;;;;;0.93;0.73;;;4.00;99.90;;;;;;5054994;28;20188;-76
2022/01/28 07:40:02;;;;;;;0.63;0.63;;;4.00;99.90;;;;;;5053877;28;20192;-75
2022/01/28 07:42:32;;;;;;;0.30;0.30;;;4.00;99.90;;;;;;5053437;28;20643;-75
2022/01/28 07:44:58;;;;;;;0.20;0.20;;;3.90;99.90;;;;;;5035889;28;20267;-76
2022/01/28 07:47:23;;;;;;;2.63;2.07;;;4.00;99.90;;;;;;5053586;28;20220;-76
2022/01/28 07:49:49;;;;;;;0.10;0.10;;;4.10;99.90;;;;;;5054086;28;20229;-75
2022/01/28 07:52:14;;;;;;;1.23;1.17;;;4.10;99.90;;;;;;5053346;28;20201;-75
2022/01/28 07:54:46;;;;;;;0.30;0.30;;;4.10;99.90;;;;;;5053778;28;20185;-75
2022/01/28 07:57:12;;;;;;;1.07;1.07;;;4.20;99.90;;;;;;5053371;28;20652;-75
2022/01/28 07:59:38;;;;;;;0.10;0.10;;;4.30;99.90;;;;;;5027082;28;20307;-73
2022/01/28 08:02:03;;;;;;;2.60;2.23;;;4.40;99.90;;;;;;5052454;28;20754;-74
2022/01/28 08:04:29;;;;;;;1.70;1.60;;;4.40;99.90;;;;;;5053190;28;20182;-75
2022/01/28 08:06:54;;;;;;;0.10;0.10;;;4.40;99.90;;;;;;5038163;28;20177;-74
2022/01/28 08:09:20;;;;;;;0.13;0.13;;;4.40;99.90;;;;;;5020738;28;20265;-74
2022/01/28 08:11:45;;;;;;;3.30;1.20;;;4.40;99.90;;;;;;5049222;28;20211;-74
2022/01/28 08:14:13;;;;;;;0.30;0.30;;;4.30;99.90;;;;;;5045556;28;20184;-74
2022/01/28 08:16:39;;;;;;;0.70;0.70;;;4.30;99.90;;;;;;5036149;28;20184;-73
2022/01/28 08:19:05;;;;;;;1.80;1.70;;;4.40;99.90;;;;;;5034368;28;20188;-73
2022/01/28 08:21:30;;;;;;;2.27;1.70;;;4.40;99.90;;;;;;5015289;28;20208;-73
2022/01/28 08:23:56;;;;;;;0.00;0.00;;;4.40;99.90;;;;;;5031505;28;20209;-73
2022/01/28 08:26:22;;;;;;;1.67;1.10;;;4.50;99.90;;;;;;5038998;28;20180;-74
2022/01/28 08:28:47;;;;;;;0.30;0.30;;;4.50;99.90;;;;;;5036547;28;20182;-74
2022/01/28 08:31:14;;;;;;;1.13;0.93;;;4.60;99.90;;;;;;5033850;28;20213;-74
2022/01/28 08:33:39;;;;;;;3.77;2.63;;;4.60;99.90;;;;;;5049900;28;20197;-73
2022/01/28 08:36:05;;;;;;;2.37;1.27;;;4.70;99.90;;;;;;5036794;28;20231;-74
2022/01/28 08:38:36;;;;;;;0.70;0.70;;;4.80;99.90;;;;;;5032045;28;20174;-74
2022/01/28 08:41:03;;;;;;;1.03;0.90;;;4.90;99.90;;;;;;5035112;28;20252;-74
2022/01/28 08:43:29;;;;;;;0.67;0.67;;;5.00;99.90;;;;;;5046569;28;20240;-73
2022/01/28 08:45:55;;;;;;;0.50;0.50;;;5.00;99.90;;;;;;5033383;28;20652;-74
2022/01/28 08:48:24;;;;;;;1.57;1.47;;;5.00;99.90;;;;;;5022663;28;20177;-74
2022/01/28 08:50:50;;;;;;;0.40;0.40;;;5.00;99.90;;;;;;5035136;28;20275;-74
2022/01/28 08:53:15;;;;;;;1.37;1.33;;;5.00;99.90;;;;;;5052769;28;20238;-73
2022/01/28 08:55:41;;;;;;;0.03;0.03;;;5.00;99.90;;;;;;5035387;28;20170;-74
2022/01/28 08:58:09;;;;;;;0.30;0.30;;;5.00;99.90;;;;;;5047060;28;20203;-74
2022/01/28 09:00:35;;;;;;;0.63;0.63;;;5.00;99.90;;;;;;5052464;28;20181;-74
2022/01/28 09:03:01;;;;;;;3.20;3.00;;;5.00;99.90;;;;;;5034796;28;20201;-74
2022/01/28 09:05:28;;;;;;;2.43;1.60;;;5.10;99.90;;;;;;5052773;28;20686;-74
2022/01/28 09:07:54;;;;;;;6.33;1.60;;;5.20;99.90;;;;;;5052370;28;20204;-74
2022/01/28 09:10:25;;;;;;;0.97;0.97;;;5.20;99.90;;;;;;5052215;28;20282;-74
2022/01/28 09:15:25;;;;;;;0.30;0.30;;;5.30;99.90;;;;;;5052962;28;20204;-74
2022/01/28 09:17:50;;;;;;;0.50;0.50;;;5.40;99.90;;;;;;5052394;28;20230;-74
2022/01/28 09:20:16;;;;;;;0.40;0.40;;;5.50;99.90;;;;;;5033827;28;20335;-73
2022/01/28 09:22:42;;;;;;;0.30;0.30;;;5.40;99.90;;;;;;5034156;28;20280;-74
2022/01/28 09:25:08;;;;;;;0.00;0.00;;;5.40;99.90;;;;;;5043111;28;20266;-73
2022/01/28 09:27:33;;;;;;;4.17;1.20;;;5.20;99.90;;;;;;5037825;28;20288;-73
2022/01/28 09:29:59;;;;;;;1.40;1.10;;;5.10;99.90;;;;;;5034598;28;20283;-75
2022/01/28 09:32:24;;;;;;;0.23;0.23;;;4.90;99.90;;;;;;5033895;28;20289;-74
2022/01/28 09:34:50;;;;;;;2.37;2.17;;;4.90;99.90;;;;;;5052179;28;20176;-74
2022/01/28 09:37:16;;;;;;;0.73;0.40;;;4.90;99.90;;;;;;5052280;28;20172;-73
2022/01/28 09:39:45;;;;;;;1.27;0.43;;;5.00;99.90;;;;;;5042987;28;20170;-74
2022/01/28 09:44:39;;;;;;;0.57;0.57;;;5.10;99.90;;;;;;5055314;28;20679;-79
2022/01/28 09:47:05;;;;;;;3.03;1.60;;;5.10;99.90;;;;;;5038786;28;20173;-78
2022/01/28 09:49:31;;;;;;;2.33;2.20;;;5.20;99.90;;;;;;5055706;28;20256;-79
2022/01/28 09:51:58;;;;;;;1.90;1.30;;;5.20;99.90;;;;;;5037321;28;20232;-78
2022/01/28 09:54:24;;;;;;;0.97;0.57;;;5.20;99.90;;;;;;5056121;28;20196;-79
2022/01/28 09:56:50;;;;;;;1.37;1.30;;;5.20;99.90;;;;;;5053507;28;20245;-79
2022/01/28 09:59:15;;;;;;;0.77;0.77;;;5.30;99.90;;;;;;5056314;28;20173;-79
2022/01/28 10:01:55;;;;;;;17.70;3.17;;;5.30;99.90;;;;;;5056301;28;20257;-79
2022/01/28 10:04:21;;;;;;;0.73;0.73;;;5.40;99.90;;;;;;5050946;28;20572;-77
2022/01/28 10:06:48;;;;;;;5.10;3.13;;;5.50;99.90;;;;;;5056514;28;20172;-78
2022/01/28 10:09:17;;;;;;;1.60;1.50;;;5.50;99.90;;;;;;5038123;28;20193;-80
2022/01/28 10:11:45;;;;;;;1.97;1.87;;;5.60;99.90;;;;;;5029746;28;20663;-78
2022/01/28 10:14:15;;;;;;;6.70;1.80;;;5.60;99.90;;;;;;5056340;28;20197;-78
2022/01/28 10:16:41;;;;;;;2.13;1.83;;;5.70;99.90;;;;;;5039002;28;20187;-78
2022/01/28 10:19:09;;;;;;;0.47;0.33;;;5.70;99.90;;;;;;5044602;28;20188;-78
2022/01/28 10:21:43;;;;;;;2.63;2.20;;;5.70;99.90;;;;;;5055228;28;20188;-80
2022/01/28 10:24:20;;;;;;;1.50;1.50;;;5.80;99.90;;;;;;5053755;28;20189;-77
2022/01/28 10:27:05;;;;;;;0.93;0.93;;;5.80;99.90;;;;;;5027494;28;20206;-78
2022/01/28 10:29:37;;;;;;;0.67;0.67;;;5.90;99.90;;;;;;5055987;28;20192;-78
2022/01/28 10:32:06;;;;;;;0.60;0.60;;;6.00;99.90;;;;;;5044268;28;20201;-77
2022/01/28 10:34:35;;;;;;;5.53;1.80;;;6.10;99.90;;;;;;5033704;28;20521;-79
2022/01/28 10:37:14;;;;;;;0.83;0.80;;;6.30;99.90;;;;;;5060769;28;20234;-79
2022/01/28 10:40:00;;;;;;;3.40;0.83;;;6.30;99.90;;;;;;5060329;28;20181;-78
2022/01/28 10:42:25;;;;;;;1.37;1.27;;;6.40;99.90;;;;;;5040245;28;20200;-79
2022/01/28 10:45:22;;;;;;;0.20;0.20;;;6.80;99.90;;;;;;5019612;28;20186;-77
2022/01/28 10:47:51;;;;;;;1.20;1.10;;;7.10;99.90;;;;;;5018779;28;20190;-77
2022/01/28 10:50:36;;;;;;;1.00;1.00;;;7.30;99.90;;;;;;5035088;28;20213;-79
2022/01/28 10:53:09;;;;;;;0.60;0.60;;;7.60;99.90;;;;;;5035021;28;20698;-76
2022/01/28 10:55:40;;;;;;;0.17;0.17;;;7.60;99.90;;;;;;5035870;28;20228;-78
2022/01/28 10:58:13;;;;;;;0.77;0.77;;;7.40;99.90;;;;;;5035451;28;20546;-78
2022/01/28 11:00:46;;;;;;;0.40;0.40;;;7.00;99.90;;;;;;5006577;28;20185;-79
2022/01/28 11:03:15;;;;;;;2.10;0.93;;;6.80;99.90;;;;;;5022789;28;20194;-77
2022/01/28 11:05:43;;;;;;;0.73;0.30;;;6.60;99.90;;;;;;5030131;28;20188;-78
2022/01/28 11:08:13;;;;;;;0.80;0.80;;;6.60;99.90;;;;;;5026250;28;20197;-78
2022/01/28 11:10:40;;;;;;;1.40;1.30;;;6.60;99.90;;;;;;5032695;28;20224;-78
2022/01/28 11:13:06;;;;;;;0.57;0.57;;;6.50;99.90;;;;;;5003420;28;20186;-78
2022/01/28 11:15:33;;;;;;;1.17;1.07;;;6.80;99.90;;;;;;5025799;28;20261;-79
2022/01/28 11:18:01;;;;;;;2.93;2.73;;;7.00;99.90;;;;;;5012490;28;20541;-78
2022/01/28 11:20:36;;;;;;;0.40;0.40;;;7.50;99.90;;;;;;5016242;28;20250;-78
2022/01/28 11:23:08;;;;;;;3.00;2.80;;;7.40;99.90;;;;;;5021568;28;20205;-78
2022/01/28 11:25:36;;;;;;;1.03;1.03;;;7.10;99.90;;;;;;5006213;28;20631;-78
2022/01/28 11:28:13;;;;;;;0.83;0.83;;;6.90;99.90;;;;;;5023269;28;20661;-77
2022/01/28 11:30:46;;;;;;;0.50;0.50;;;6.90;99.90;;;;;;5004882;28;20206;-77
2022/01/28 11:33:13;;;;;;;0.87;0.87;;;6.90;99.90;;;;;;5035623;28;20660;-78
2022/01/28 11:35:42;;;;;;;0.43;0.43;;;6.90;99.90;;;;;;5033700;28;20174;-77
2022/01/28 11:38:28;;;;;;;0.30;0.30;;;7.00;99.90;;;;;;5025717;28;20177;-78
2022/01/28 11:41:06;;;;;;;0.20;0.20;;;7.00;99.90;;;;;;5022467;28;20185;-78
2022/01/28 11:43:33;;;;;;;1.30;1.20;;;7.00;99.90;;;;;;5042837;28;20303;-79
2022/01/28 11:46:19;;;;;;;0.30;0.30;;;7.00;99.90;;;;;;5037990;28;20211;-78
2022/01/28 11:49:02;;;;;;;5.07;2.37;;;7.10;99.90;;;;;;5037701;28;20207;-77
2022/01/28 11:51:40;;;;;;;0.53;0.53;;;7.20;99.90;;;;;;5057607;28;20208;-79
2022/01/28 11:54:14;;;;;;;1.13;1.07;;;7.30;99.90;;;;;;5056824;28;20228;-78
2022/01/28 11:56:56;;;;;;;1.23;1.13;;;8.10;99.90;;;;;;5057690;28;20156;-77
2022/01/28 11:59:26;;;;;;;0.97;0.83;;;8.10;99.90;;;;;;5056747;28;20174;-77
2022/01/28 12:01:52;;;;;;;9.57;2.53;;;7.90;99.90;;;;;;5054703;28;20215;-78
2022/01/28 12:04:30;;;;;;;1.50;1.23;;;8.10;99.90;;;;;;5055871;28;20225;-78
2022/01/28 12:07:04;;;;;;;0.60;0.60;;;8.00;99.90;;;;;;5036957;28;20218;-77
2022/01/28 12:09:32;;;;;;;0.10;0.10;;;7.40;99.90;;;;;;5036382;28;20182;-79
2022/01/28 12:12:01;;;;;;;2.00;1.90;;;7.20;99.90;;;;;;5037538;28;20230;-78
2022/01/28 12:14:48;;;;;;;1.53;0.70;;;7.30;99.90;;;;;;5042005;28;20541;-77
2022/01/28 12:17:36;;;;;;;0.30;0.30;;;7.30;99.90;;;;;;5040465;28;20268;-78
2022/01/28 12:20:14;;;;;;;0.47;0.47;;;7.40;99.90;;;;;;5023640;28;20172;-77
2022/01/28 12:23:01;;;;;;;1.23;1.23;;;7.60;99.90;;;;;;5037711;28;20192;-78
2022/01/28 12:25:35;;;;;;;3.30;1.40;;;7.50;99.90;;;;;;5043275;28;20188;-77
2022/01/28 12:28:20;;;;;;;0.20;0.20;;;7.40;99.90;;;;;;5037625;28;20184;-78
2022/01/28 12:30:48;;;;;;;0.07;0.07;;;7.40;99.90;;;;;;5052906;28;20690;-78
2022/01/28 12:33:19;;;;;;;0.10;0.10;;;7.30;99.90;;;;;;5044503;28;20193;-77
2022/01/28 12:35:46;;;;;;;0.07;0.07;;;7.80;99.90;;;;;;5055551;28;20215;-78
2022/01/28 12:38:13;;;;;;;1.27;0.40;;;7.90;99.90;;;;;;5055076;28;20260;-79
2022/01/28 12:40:46;;;;;;;0.20;0.20;;;7.40;99.90;;;;;;5055025;28;20173;-78
2022/01/28 12:43:16;;;;;;;0.50;0.50;;;7.90;99.90;;;;;;5054771;28;20299;-79
2022/01/28 12:45:59;;;;;;;0.10;0.10;;;8.00;99.90;;;;;;5055587;28;20195;-78
2022/01/28 12:48:25;;;;;;;0.10;0.10;;;8.30;99.90;;;;;;5022910;28;20662;-79
2022/01/28 12:50:52;;;;;;;1.20;1.20;;;7.90;99.90;;;;;;5043298;28;20204;-78
2022/01/28 12:53:39;;;;;;;0.20;0.20;;;7.70;99.90;;;;;;5054774;28;20694;-77
2022/01/28 12:56:06;;;;;;;0.30;0.30;;;7.90;99.90;;;;;;5044952;28;20707;-79
2022/01/28 12:58:44;;;;;;;0.30;0.30;;;7.80;99.90;;;;;;5052497;28;20183;-78
2022/01/28 13:01:12;;;;;;;0.93;0.90;;;8.10;99.90;;;;;;5054824;28;20188;-77
2022/01/28 13:03:57;;;;;;;4.50;2.73;;;8.00;99.90;;;;;;5037526;28;20196;-78
2022/01/28 13:08:59;;;;;;;0.57;0.57;;;8.30;99.90;;;;;;5055025;28;20239;-77
2022/01/28 13:11:25;;;;;;;0.73;0.73;;;8.00;99.90;;;;;;5040503;28;20227;-80
2022/01/28 13:13:54;;;;;;;0.53;0.30;;;7.90;99.90;;;;;;5054485;28;20196;-77
2022/01/28 13:16:37;;;;;;;0.73;0.73;;;7.60;99.90;;;;;;5054136;28;20256;-79
2022/01/28 13:19:05;;;;;;;0.20;0.20;;;7.50;99.90;;;;;;5054037;28;20223;-79
2022/01/28 13:21:32;;;;;;;0.40;0.37;;;7.70;99.90;;;;;;5053755;28;20181;-79
2022/01/28 13:24:11;;;;;;;1.00;1.00;;;7.70;99.90;;;;;;5053819;28;20203;-78
2022/01/28 13:27:01;;;;;;;0.40;0.40;;;9.60;99.90;;;;;;5030384;28;20240;-79
2022/01/28 13:29:37;;;;;;;2.03;1.27;;;11.30;99.90;;;;;;5054819;28;20200;-80
2022/01/28 13:32:14;;;;;;;1.43;1.17;;;12.80;99.90;;;;;;5041485;28;20201;-80
2022/01/28 13:34:58;;;;;;;3.10;2.00;;;12.20;99.90;;;;;;5031212;28;20721;-79
2022/01/28 13:37:31;;;;;;;0.47;0.47;;;12.10;99.90;;;;;;5050878;28;20268;-79
2022/01/28 13:39:58;;;;;;;16.73;1.07;;;10.40;99.90;;;;;;5043249;28;20693;-78
2022/01/28 13:42:24;;;;;;;0.57;0.57;;;10.20;99.90;;;;;;5033952;28;20200;-81
2022/01/28 13:44:50;;;;;;;4.93;1.70;;;10.70;99.90;;;;;;5025237;28;20264;-80
2022/01/28 13:47:17;;;;;;;2.50;1.97;;;;;;;;;;5040575;28;20683;-79
2022/01/28 13:49:44;;;;;;;2.17;2.07;;;13.60;99.90;;;;;;5055140;28;20206;-79
2022/01/28 13:52:17;;;;;;;1.20;0.80;;;12.60;99.90;;;;;;5035631;28;20414;-78
2022/01/28 13:54:44;;;;;;;0.53;0.53;;;11.70;99.90;;;;;;5037454;28;20184;-78
2022/01/28 13:57:11;;;;;;;1.73;1.60;;;10.00;99.90;;;;;;5054436;28;20545;-79
2022/01/28 13:59:41;;;;;;;0.97;0.97;;;9.60;99.90;;;;;;5054683;28;20165;-79
2022/01/28 14:02:15;;;;;;;0.30;0.30;;;10.60;99.90;;;;;;5054514;28;20190;-79
2022/01/28 14:04:46;;;;;;;0.10;0.10;;;11.00;99.90;;;;;;5055178;28;20177;-80
2022/01/28 14:07:21;;;;;;;0.40;0.40;;;9.80;99.90;;;;;;5053854;28;20269;-78
2022/01/28 14:09:59;;;;;;;0.53;0.53;;;10.30;99.90;;;;;;5040960;28;20529;-79
2022/01/28 14:12:42;;;;;;;1.70;1.60;;;11.70;99.90;;;;;;5054015;28;20208;-77
2022/01/28 14:15:33;;;;;;;0.87;0.80;;;11.90;99.90;;;;;;5028358;28;20195;-80
2022/01/28 14:18:02;;;;;;;0.77;0.77;;;10.40;99.90;;;;;;5053738;28;20199;-78
2022/01/28 14:20:27;;;;;;;2.43;1.97;;;9.50;99.90;;;;;;5055308;28;20215;-80
2022/01/28 14:22:53;;;;;;;0.43;0.43;;;10.40;99.90;;;;;;5054257;28;20205;-78
2022/01/28 14:25:20;;;;;;;0.47;0.47;;;11.40;99.90;;;;;;5044336;28;20179;-78
2022/01/28 14:28:00;;;;;;;0.67;0.67;;;12.40;99.90;;;;;;5053586;28;20173;-81
2022/01/28 14:30:38;;;;;;;1.03;0.67;;;13.80;99.90;;;;;;5056705;28;20232;-80
2022/01/28 14:33:04;;;;;;;1.13;0.70;;;13.90;99.90;;;;;;5057282;28;20568;-79